Alts El Maestro, Puerto Rico
Current Conditions -  °F | °C
As of 7:50 AM on Thursday 23 Oct 2014 (Local Time) from TJBQ Reporting Station
Clear Clear  
Wind Chill: 25°   Ceiling: Unl
Heat Index: 26°   Visibility: 10mi
Dew Point: 21°   Wind: 6mph
Humidity: 78%   Direction: 140°SE
Pressure: 29.95"   Gusts: NA
Location:  18.4865°N, 66.8455°W
Report Text: TJBQ 231150Z 14005KT 10SM SKC 25/21 A2995 RMK RWY 08- ATIS C
Loading
Personal Weather Stations






























Interactive Weather Map
Tropical Storm Tracking
New forecast layout! Learn more

10-Day Weather Forecast

Advertisements
Track Severe Weather on mobile